Time;durP1;ratioP1;P1;durP2;ratioP2;P2;SDS_P1;SDS_P2;PMS_P1;PMS_P2;Temp;Humidity;BMP_temperature;BMP_pressure;BME280_temperature;BME280_humidity;BME280_pressure;Samples;Min_cycle;Max_cycle;Signal;HPM_P1;HPM_P2
2021/11/01 00:00:40;;;;;;;;;;;14.70;87.90;;;;;;5041074;28;19917;-74
2021/11/01 00:03:05;;;;;;;;;;;14.60;88.00;;;;;;5039874;28;19920;-74
2021/11/01 00:05:31;;;;;;;;;;;14.60;88.20;;;;;;5033913;28;19909;-74
2021/11/01 00:07:56;;;;;;;;;;;14.60;88.40;;;;;;5034270;28;19955;-74
2021/11/01 00:10:22;;;;;;;;;;;14.60;88.70;;;;;;5033270;28;20299;-74
2021/11/01 00:12:47;;;;;;;;;;;14.60;88.80;;;;;;5045233;28;19909;-73
2021/11/01 00:15:14;;;;;;;;;;;14.60;88.90;;;;;;5034122;28;19992;-73
2021/11/01 00:17:40;;;;;;;;;;;14.60;88.40;;;;;;5041581;28;19917;-73
2021/11/01 00:20:06;;;;;;;;;;;14.60;88.60;;;;;;5031355;28;20118;-74
2021/11/01 00:22:32;;;;;;;;;;;14.60;89.00;;;;;;5033839;28;19936;-74
2021/11/01 00:24:58;;;;;;;;;;;14.60;88.40;;;;;;5020333;28;20296;-73
2021/11/01 00:27:23;;;;;;;;;;;14.60;88.50;;;;;;5039550;28;19909;-74
2021/11/01 00:29:49;;;;;;;;;;;14.70;89.10;;;;;;5054136;28;19909;-74
2021/11/01 00:32:14;;;;;;;;;;;14.80;89.10;;;;;;5053543;28;20412;-74
2021/11/01 00:34:41;;;;;;;;;;;14.90;89.00;;;;;;5033969;28;20285;-73
2021/11/01 00:37:07;;;;;;;;;;;15.10;89.10;;;;;;5033658;28;19956;-74
2021/11/01 00:39:32;;;;;;;;;;;15.20;89.20;;;;;;5042928;28;19959;-73
2021/11/01 00:41:58;;;;;;;;;;;15.20;89.20;;;;;;5033598;28;20024;-73
2021/11/01 00:44:23;;;;;;;;;;;15.20;89.40;;;;;;5038493;28;19924;-74
2021/11/01 00:46:48;;;;;;;;;;;15.20;89.50;;;;;;5030302;28;19913;-74
2021/11/01 00:49:14;;;;;;;;;;;15.20;90.00;;;;;;5020600;28;20063;-73
2021/11/01 00:51:42;;;;;;;;;;;15.20;90.00;;;;;;5040283;28;19909;-73
2021/11/01 00:54:08;;;;;;;;;;;15.20;90.20;;;;;;5034183;28;19924;-73
2021/11/01 00:56:34;;;;;;;;;;;15.20;90.50;;;;;;5037716;28;19944;-73
2021/11/01 00:58:59;;;;;;;;;;;15.10;91.00;;;;;;5037113;28;19937;-73
2021/11/01 01:01:25;;;;;;;;;;;15.10;91.50;;;;;;5033454;28;19914;-74
2021/11/01 01:03:50;;;;;;;;;;;15.10;92.30;;;;;;5034346;28;19910;-73
2021/11/01 01:06:17;;;;;;;;;;;15.10;92.50;;;;;;5026667;28;20369;-73
2021/11/01 01:08:42;;;;;;;;;;;15.00;93.70;;;;;;5046705;28;20422;-73
2021/11/01 01:11:08;;;;;;;;;;;15.00;93.70;;;;;;5046026;28;19916;-73
2021/11/01 01:13:36;;;;;;;;;;;15.00;93.60;;;;;;5032281;28;19992;-73
2021/11/01 01:16:12;;;;;;;;;;;15.00;94.00;;;;;;5036910;28;19955;-73
2021/11/01 01:18:39;;;;;;;;;;;15.00;93.80;;;;;;5032706;28;19924;-73
2021/11/01 01:23:49;;;;;;;;;;;15.00;93.90;;;;;;5033040;28;19931;-73
2021/11/01 01:26:15;;;;;;;;;;;15.00;94.00;;;;;;5027122;28;20393;-73
2021/11/01 01:28:42;;;;;;;;;;;15.00;94.10;;;;;;5026723;28;19920;-73
2021/11/01 01:31:07;;;;;;;;;;;15.00;94.20;;;;;;5039956;28;19909;-73
2021/11/01 01:33:33;;;;;;;;;;;14.90;94.20;;;;;;5033114;28;19932;-73
2021/11/01 01:35:59;;;;;;;;;;;15.00;94.30;;;;;;5032678;28;20387;-73
2021/11/01 01:38:26;;;;;;;;;;;15.00;94.20;;;;;;5032812;28;19978;-73
2021/11/01 01:40:53;;;;;;;;;;;15.00;94.20;;;;;;5032823;28;19909;-73
2021/11/01 01:43:19;;;;;;;;;;;15.00;94.20;;;;;;5032769;28;19916;-73
2021/11/01 01:45:45;;;;;;;;;;;14.90;94.40;;;;;;5032475;28;19913;-73
2021/11/01 01:48:11;;;;;;;;;;;14.90;94.40;;;;;;5041990;28;19909;-74
2021/11/01 01:50:36;;;;;;;;;;;14.90;94.30;;;;;;5030693;28;19920;-73
2021/11/01 01:53:02;;;;;;;;;;;14.90;94.20;;;;;;5056566;28;19913;-74
2021/11/01 01:55:27;;;;;;;;;;;14.90;94.20;;;;;;5024831;28;19913;-74
2021/11/01 01:57:53;;;;;;;;;;;14.90;94.20;;;;;;5033723;28;19955;-74
2021/11/01 02:02:54;;;;;;;;;;;14.80;94.10;;;;;;5036396;28;19945;-73
2021/11/01 02:05:19;;;;;;;;;;;14.90;94.10;;;;;;5038127;28;19913;-73
2021/11/01 02:07:48;;;;;;;;;;;14.90;94.10;;;;;;5036911;28;20294;-74
2021/11/01 02:10:16;;;;;;;;;;;14.80;94.10;;;;;;5052315;28;19920;-74
2021/11/01 02:12:42;;;;;;;;;;;14.80;94.00;;;;;;5030891;28;20379;-73
2021/11/01 02:15:28;;;;;;;;;;;14.80;94.00;;;;;;5031992;28;19924;-73
2021/11/01 02:17:55;;;;;;;;;;;14.80;94.00;;;;;;5035310;28;20023;-73
2021/11/01 02:20:30;;;;;;;;;;;14.80;93.80;;;;;;5051683;28;20015;-73
2021/11/01 02:22:55;;;;;;;;;;;14.70;93.70;;;;;;5038996;28;19923;-73
2021/11/01 02:25:40;;;;;;;;;;;14.70;93.50;;;;;;5033974;28;19917;-73
2021/11/01 02:28:07;;;;;;;;;;;14.70;93.50;;;;;;5032049;28;19909;-73
2021/11/01 02:30:33;;;;;;;;;;;14.70;93.60;;;;;;5049435;28;19924;-73
2021/11/01 02:32:59;;;;;;;;;;;14.70;93.50;;;;;;5031603;28;19916;-73
2021/11/01 02:35:25;;;;;;;;;;;14.70;93.60;;;;;;5031415;28;19917;-73
2021/11/01 02:37:51;;;;;;;;;;;14.70;93.60;;;;;;5037507;28;20299;-74
2021/11/01 02:40:16;;;;;;;;;;;14.60;93.60;;;;;;5022958;28;19915;-73
2021/11/01 02:42:43;;;;;;;;;;;14.60;93.70;;;;;;5034450;28;19913;-73
2021/11/01 02:45:10;;;;;;;;;;;14.60;93.70;;;;;;5039616;28;19932;-73
2021/11/01 02:47:35;;;;;;;;;;;14.60;93.80;;;;;;5032008;28;19952;-73
2021/11/01 02:50:03;;;;;;;;;;;14.50;93.80;;;;;;5036147;28;20311;-73
2021/11/01 02:52:29;;;;;;;;;;;14.50;93.90;;;;;;5030068;28;20277;-73
2021/11/01 02:54:55;;;;;;;;;;;14.50;93.90;;;;;;5037083;28;19909;-73
2021/11/01 02:57:21;;;;;;;;;;;14.50;94.00;;;;;;5032134;28;19956;-73
2021/11/01 02:59:46;;;;;;;;;;;14.40;94.00;;;;;;5034384;28;19955;-73
2021/11/01 03:02:12;;;;;;;;;;;14.40;94.00;;;;;;5040988;28;19909;-73
2021/11/01 03:04:37;;;;;;;;;;;14.30;93.90;;;;;;5034145;28;19974;-73
2021/11/01 03:07:04;;;;;;;;;;;14.30;93.70;;;;;;5046059;28;19908;-74
2021/11/01 03:09:30;;;;;;;;;;;14.30;93.30;;;;;;5036096;28;19987;-73
2021/11/01 03:12:00;;;;;;;;;;;14.30;92.90;;;;;;5030685;28;19963;-73
2021/11/01 03:14:28;;;;;;;;;;;14.20;92.70;;;;;;5029257;28;19948;-73
2021/11/01 03:16:56;;;;;;;;;;;14.20;92.70;;;;;;5034484;28;20371;-74
2021/11/01 03:19:23;;;;;;;;;;;14.20;92.70;;;;;;5044180;28;19917;-73
2021/11/01 03:21:48;;;;;;;;;;;14.20;92.60;;;;;;5036466;28;19909;-73
2021/11/01 03:24:15;;;;;;;;;;;14.20;92.60;;;;;;5025675;28;19979;-74
2021/11/01 03:26:41;;;;;;;;;;;14.10;92.70;;;;;;5041693;28;19924;-74
2021/11/01 03:29:08;;;;;;;;;;;14.10;92.80;;;;;;5048398;28;20497;-73
2021/11/01 03:31:34;;;;;;;;;;;14.00;92.80;;;;;;5050959;28;20282;-74
2021/11/01 03:33:59;;;;;;;;;;;13.90;92.80;;;;;;5050982;28;19924;-73
2021/11/01 03:36:25;;;;;;;;;;;13.90;93.00;;;;;;5053191;28;19932;-73
2021/11/01 03:38:52;;;;;;;;;;;13.80;93.10;;;;;;5039820;28;19952;-74
2021/11/01 03:41:18;;;;;;;;;;;13.80;93.20;;;;;;5016981;28;20019;-74
2021/11/01 03:43:52;;;;;;;;;;;13.70;93.40;;;;;;5040630;28;20419;-73
2021/11/01 03:46:25;;;;;;;;;;;13.70;93.50;;;;;;5024413;28;20416;-74
2021/11/01 03:48:50;;;;;;;;;;;13.60;93.80;;;;;;5032361;28;19924;-74
2021/11/01 03:51:38;;;;;;;;;;;13.60;94.10;;;;;;5050332;28;19909;-74
2021/11/01 03:54:01;;;;;;;;;;;13.50;94.20;;;;;;5039783;28;20291;-73
2021/11/01 03:56:27;;;;;;;;;;;13.50;94.40;;;;;;5039235;28;19913;-73
2021/11/01 03:58:53;;;;;;;;;;;13.50;94.50;;;;;;5043044;28;20340;-73
2021/11/01 04:01:19;;;;;;;;;;;13.40;94.60;;;;;;5042772;28;20428;-73
2021/11/01 04:03:44;;;;;;;;;;;13.40;94.70;;;;;;5040580;28;19913;-74
2021/11/01 04:06:10;;;;;;;;;;;13.40;94.80;;;;;;5021628;28;19913;-73
2021/11/01 04:08:36;;;;;;;;;;;13.30;94.70;;;;;;5036938;28;19921;-74
2021/11/01 04:11:01;;;;;;;;;;;13.30;94.80;;;;;;5040042;28;20012;-73
2021/11/01 04:13:27;;;;;;;;;;;13.30;94.80;;;;;;5035556;28;20008;-73
2021/11/01 04:16:00;;;;;;;;;;;13.30;94.90;;;;;;5037588;28;19983;-73
2021/11/01 04:18:36;;;;;;;;;;;13.20;94.80;;;;;;5036519;28;19918;-73
2021/11/01 04:21:06;;;;;;;;;;;13.30;95.00;;;;;;5043916;28;19909;-73
2021/11/01 04:23:33;;;;;;;;;;;13.20;95.00;;;;;;5040650;28;19916;-73
2021/11/01 04:26:01;;;;;;;;;;;13.20;94.90;;;;;;5044672;28;19916;-73
2021/11/01 04:28:26;;;;;;;;;;;13.10;94.90;;;;;;5033592;28;19913;-73
2021/11/01 04:30:59;;;;;;;;;;;13.10;95.00;;;;;;5037314;28;20364;-73
2021/11/01 04:33:26;;;;;;;;;;;13.00;95.10;;;;;;5036243;28;20300;-73
2021/11/01 04:35:51;;;;;;;;;;;13.00;95.00;;;;;;5036843;28;19913;-73
2021/11/01 04:38:34;;;;;;;;;;;13.00;95.10;;;;;;5038359;28;19909;-73
2021/11/01 04:41:07;;;;;;;;;;;13.00;95.30;;;;;;5048408;28;19909;-73
2021/11/01 04:44:05;;;;;;;;;;;13.10;95.20;;;;;;5018203;28;19913;-74
2021/11/01 04:54:31;;;;;;;;;;;13.10;95.40;;;;;;5041066;28;20008;-73
2021/11/01 04:56:57;;;;;;;;;;;13.10;95.40;;;;;;5033196;28;20000;-73
2021/11/01 04:59:23;;;;;;;;;;;13.10;95.40;;;;;;5045176;28;19909;-68
2021/11/01 05:01:52;;;;;;;;;;;13.10;95.40;;;;;;5036380;28;19913;-67
2021/11/01 05:04:23;;;;;;;;;;;13.10;95.30;;;;;;5037684;28;19944;-67
2021/11/01 05:07:07;;;;;;;;;;;13.10;95.30;;;;;;5037163;28;20019;-67
2021/11/01 05:19:39;;;;;;;;;;;13.00;95.60;;;;;;5031231;28;20016;-67
2021/11/01 05:22:22;;;;;;;;;;;13.00;95.80;;;;;;5038878;28;20297;-67
2021/11/01 05:24:54;;;;;;;;;;;13.00;96.00;;;;;;5035582;28;19917;-69
2021/11/01 05:27:37;;;;;;;;;;;12.90;96.20;;;;;;5036507;28;20517;-68
2021/11/01 05:30:07;;;;;;;;;;;12.90;96.30;;;;;;5037091;28;19990;-69
2021/11/01 05:32:34;;;;;;;;;;;12.90;96.60;;;;;;5035196;28;19962;-68
2021/11/01 05:34:59;;;;;;;;;;;12.80;96.70;;;;;;5038198;28;19920;-68
2021/11/01 05:37:25;;;;;;;;;;;12.80;96.90;;;;;;5035975;28;19913;-70
2021/11/01 05:39:50;;;;;;;;;;;12.80;97.10;;;;;;5019428;28;19917;-68
2021/11/01 05:42:16;;;;;;;;;;;12.70;97.10;;;;;;5038512;28;19932;-68
2021/11/01 05:44:41;;;;;;;;;;;12.70;97.40;;;;;;5037092;28;19912;-68
2021/11/01 05:47:09;;;;;;;;;;;12.70;97.50;;;;;;5035810;28;19916;-68
2021/11/01 05:49:37;;;;;;;;;;;12.60;97.60;;;;;;5036368;28;19916;-69
2021/11/01 05:52:05;;;;;;;;;;;12.50;98.00;;;;;;5035621;28;19922;-69
2021/11/01 05:54:32;;;;;;;;;;;12.50;98.00;;;;;;5037972;28;19921;-69
2021/11/01 05:57:07;;;;;;;;;;;12.40;97.90;;;;;;5036830;28;19996;-69
2021/11/01 06:02:24;;;;;;;;;;;12.40;98.60;;;;;;5035945;28;20292;-68
2021/11/01 06:05:05;;;;;;;;;;;12.30;98.50;;;;;;5036272;28;19908;-70
2021/11/01 06:08:08;;;;;;;;;;;12.20;98.80;;;;;;5035561;28;19925;-72
2021/11/01 06:10:52;;;;;;;;;;;12.20;98.80;;;;;;5034148;28;20371;-74
2021/11/01 06:13:27;;;;;;;;;;;12.10;98.80;;;;;;5030423;28;19917;-72
2021/11/01 06:15:54;;;;;;;;;;;12.10;99.00;;;;;;5035904;28;19963;-73
2021/11/01 06:18:20;;;;;;;;;;;12.10;99.30;;;;;;5018582;28;20252;-72
2021/11/01 06:20:45;;;;;;;;;;;12.00;99.20;;;;;;5036273;28;20015;-73
2021/11/01 06:23:11;;;;;;;;;;;12.00;99.20;;;;;;5016487;28;20007;-72
2021/11/01 06:25:37;;;;;;;;;;;11.90;99.30;;;;;;5018289;28;19957;-72
2021/11/01 06:28:03;;;;;;;;;;;11.90;99.00;;;;;;5018517;28;19952;-72
2021/11/01 06:30:35;;;;;;;;;;;11.90;99.20;;;;;;5036130;28;19952;-72
2021/11/01 06:57:02;;;;;;;;;;;11.90;99.60;;;;;;5026162;28;20306;-74
2021/11/01 07:16:03;;;;;;;;;;;11.70;99.60;;;;;;5031953;28;19928;-74
2021/11/01 07:18:35;;;;;;;;;;;11.70;99.60;;;;;;5036085;28;19917;-74
2021/11/01 07:21:22;;;;;;;;;;;11.70;99.60;;;;;;5034853;28;20351;-73
2021/11/01 07:24:13;;;;;;;;;;;11.70;99.70;;;;;;5035912;28;19963;-74
2021/11/01 08:45:54;;;;;;;;;;;11.90;98.30;;;;;;5020402;28;19917;-70
2021/11/01 08:48:39;;;;;;;;;;;12.00;98.20;;;;;;5038763;28;19913;-70
2021/11/01 09:04:37;;;;;;;;;;;12.20;97.90;;;;;;5036132;28;19924;-71
2021/11/01 09:09:52;;;;;;;;;;;12.20;97.80;;;;;;5037055;28;19939;-69
2021/11/01 09:12:57;;;;;;;;;;;12.30;97.90;;;;;;5032130;28;19916;-69
2021/11/01 09:25:59;;;;;;;;;;;12.50;97.50;;;;;;5037587;28;20371;-69
2021/11/01 09:28:28;;;;;;;;;;;12.60;97.30;;;;;;5037413;28;19978;-69
2021/11/01 09:39:41;;;;;;;;;;;12.80;97.10;;;;;;5037763;28;19927;-71
2021/11/01 09:42:06;;;;;;;;;;;12.80;97.10;;;;;;5036018;28;19924;-71
2021/11/01 09:44:32;;;;;;;;;;;12.80;97.00;;;;;;5037765;28;19917;-71
2021/11/01 09:46:59;;;;;;;;;;;12.80;97.00;;;;;;5036508;28;19923;-72
2021/11/01 09:49:25;;;;;;;;;;;12.80;97.00;;;;;;5019724;28;19925;-71
2021/11/01 09:51:52;;;;;;;;;;;12.80;97.00;;;;;;5017528;28;20229;-71
2021/11/01 09:54:23;;;;;;;;;;;12.80;96.90;;;;;;5036519;28;19917;-72
2021/11/01 09:59:16;;;;;;;;;;;12.80;96.90;;;;;;5036379;28;19919;-71
2021/11/01 10:01:43;;;;;;;;;;;12.80;96.80;;;;;;5019555;28;19917;-71
2021/11/01 10:04:16;;;;;;;;;;;12.90;96.70;;;;;;5035582;28;19917;-71
2021/11/01 10:06:42;;;;;;;;;;;12.90;96.60;;;;;;5035487;28;19921;-72
2021/11/01 10:09:12;;;;;;;;;;;12.90;96.70;;;;;;5035447;28;20477;-71
2021/11/01 10:11:39;;;;;;;;;;;12.90;96.40;;;;;;5035700;28;19917;-72
2021/11/01 10:14:06;;;;;;;;;;;13.00;96.60;;;;;;5017741;28;20675;-72
2021/11/01 10:19:26;;;;;;;;;;;13.00;96.50;;;;;;5037392;28;20402;-72
2021/11/01 10:21:52;;;;;;;;;;;13.10;96.40;;;;;;5019925;28;20003;-72
2021/11/01 10:24:22;;;;;;;;;;;13.10;96.30;;;;;;5005203;28;19917;-72
2021/11/01 10:26:47;;;;;;;;;;;13.10;96.20;;;;;;5034729;28;19924;-73
2021/11/01 10:29:13;;;;;;;;;;;13.20;96.30;;;;;;5018971;28;20404;-73
2021/11/01 10:31:43;;;;;;;;;;;13.20;96.20;;;;;;5018915;28;19924;-74
2021/11/01 10:34:10;;;;;;;;;;;13.20;96.20;;;;;;5036344;28;19929;-73
2021/11/01 10:36:37;;;;;;;;;;;13.30;96.10;;;;;;5036376;28;19917;-73
2021/11/01 10:39:06;;;;;;;;;;;13.30;95.80;;;;;;5034131;28;19913;-72
2021/11/01 10:41:54;;;;;;;;;;;13.30;95.90;;;;;;5033873;28;19924;-71
2021/11/01 11:17:28;;;;;;;;;;;13.70;95.10;;;;;;5034853;28;19927;-71
2021/11/01 11:20:22;;;;;;;;;;;13.80;95.10;;;;;;5037017;28;19917;-71
2021/11/01 11:23:06;;;;;;;;;;;13.80;95.10;;;;;;5033847;28;20425;-71
2021/11/01 11:26:03;;;;;;;;;;;13.80;95.00;;;;;;5035113;28;19920;-72
2021/11/01 11:28:42;;;;;;;;;;;13.80;95.00;;;;;;5036524;28;19916;-72
2021/11/01 11:47:39;;;;;;;;;;;14.00;94.70;;;;;;5032784;28;19923;-72
2021/11/01 11:50:26;;;;;;;;;;;14.00;94.60;;;;;;5035317;28;19952;-71
2021/11/01 11:52:52;;;;;;;;;;;14.00;94.60;;;;;;5036910;28;19917;-72
2021/11/01 11:55:19;;;;;;;;;;;13.90;94.50;;;;;;5018094;28;19917;-72
2021/11/01 11:57:53;;;;;;;;;;;13.90;94.50;;;;;;5022137;28;20516;-72
2021/11/01 12:00:18;;;;;;;;;;;14.00;94.40;;;;;;5038589;28;19994;-72
2021/11/01 12:02:46;;;;;;;;;;;14.00;94.20;;;;;;5020816;28;20388;-72
2021/11/01 12:05:27;;;;;;;;;;;14.00;94.20;;;;;;5038112;28;19913;-72
2021/11/01 12:08:00;;;;;;;;;;;14.00;94.20;;;;;;5038109;28;20323;-71
2021/11/01 12:18:52;;;;;;;;;;;14.00;93.90;;;;;;5037992;28;19970;-73
2021/11/01 12:21:18;;;;;;;;;;;14.00;93.90;;;;;;5018236;28;20433;-71
2021/11/01 12:23:44;;;;;;;;;;;14.00;93.80;;;;;;5038351;28;19925;-71
2021/11/01 12:26:12;;;;;;;;;;;14.00;93.70;;;;;;5038294;28;19949;-72
2021/11/01 12:28:38;;;;;;;;;;;14.00;93.80;;;;;;5038489;28;19925;-72
2021/11/01 12:31:04;;;;;;;;;;;14.00;93.70;;;;;;5021867;28;19921;-73
2021/11/01 12:33:31;;;;;;;;;;;14.00;93.60;;;;;;5021583;28;20276;-72
2021/11/01 12:36:03;;;;;;;;;;;14.00;93.30;;;;;;5019526;28;20381;-72
2021/11/01 12:38:39;;;;;;;;;;;14.00;93.40;;;;;;5036717;28;19913;-73
2021/11/01 12:41:15;;;;;;;;;;;14.10;93.50;;;;;;5021688;28;19916;-71
2021/11/01 12:57:31;;;;;;;;;;;14.30;92.90;;;;;;5034005;28;20589;-72
2021/11/01 12:59:57;;;;;;;;;;;14.30;92.90;;;;;;5018839;28;20340;-73
2021/11/01 13:02:33;;;;;;;;;;;14.40;92.70;;;;;;5036385;28;19971;-72
2021/11/01 13:05:00;;;;;;;;;;;14.50;92.70;;;;;;5037685;28;20330;-72
2021/11/01 13:07:40;;;;;;;;;;;14.50;92.50;;;;;;5021579;28;20007;-72
2021/11/01 13:10:16;;;;;;;;;;;14.50;92.20;;;;;;5020152;28;19928;-72
2021/11/01 13:18:08;;;;;;;;;;;14.50;91.70;;;;;;5038657;28;19924;-72
2021/11/01 13:20:35;;;;;;;;;;;14.50;91.40;;;;;;5004648;28;19917;-72
2021/11/01 13:23:01;;;;;;;;;;;14.50;91.60;;;;;;5041601;28;19913;-72
2021/11/01 13:26:00;;;;;;;;;;;14.50;91.60;;;;;;5044340;28;19928;-72
2021/11/01 13:28:40;;;;;;;;;;;14.40;91.70;;;;;;5027597;28;19909;-72
2021/11/01 13:37:23;;;;;;;;;;;14.40;91.10;;;;;;5038549;28;19970;-73
2021/11/01 13:40:00;;;;;;;;;;;14.40;91.00;;;;;;5038251;28;19960;-71
2021/11/01 13:42:25;;;;;;;;;;;14.40;90.30;;;;;;5020110;28;19921;-72
2021/11/01 13:44:51;;;;;;;;;;;14.40;90.50;;;;;;5036814;28;20056;-72
2021/11/01 13:47:17;;;;;;;;;;;14.40;90.60;;;;;;5035072;28;20311;-72
2021/11/01 13:49:46;;;;;;;;;;;14.30;90.50;;;;;;5035738;28;19930;-72
2021/11/01 13:52:31;;;;;;;;;;;14.30;90.60;;;;;;5037442;28;19916;-70
2021/11/01 13:55:02;;;;;;;;;;;14.30;90.90;;;;;;5036726;28;20376;-71
2021/11/01 13:57:30;;;;;;;;;;;14.40;91.00;;;;;;5018115;28;20288;-71
2021/11/01 14:00:11;;;;;;;;;;;14.40;90.80;;;;;;5016593;28;19924;-71
2021/11/01 14:03:00;;;;;;;;;;;14.40;90.90;;;;;;5035050;28;19920;-73
2021/11/01 14:13:34;;;;;;;;;;;14.40;90.80;;;;;;5034166;28;19956;-72
2021/11/01 14:16:19;;;;;;;;;;;14.40;90.60;;;;;;5014524;28;19920;-72
2021/11/01 14:18:54;;;;;;;;;;;14.30;90.50;;;;;;5037961;28;19921;-74
2021/11/01 14:29:47;;;;;;;;;;;14.20;90.50;;;;;;5034979;28;20047;-72
2021/11/01 14:35:09;;;;;;;;;;;14.10;90.60;;;;;;5037887;28;19913;-71
2021/11/01 14:59:47;;;;;;;;;;;13.80;90.90;;;;;;5036854;28;19935;-71
2021/11/01 15:03:01;;;;;;;;;;;13.80;91.10;;;;;;5036916;28;20288;-72
2021/11/01 15:06:24;;;;;;;;;;;13.70;91.30;;;;;;5036357;28;19917;-71
2021/11/01 15:10:52;;;;;;;;;;;13.60;91.30;;;;;;5037898;28;20468;-70
2021/11/01 15:18:29;;;;;;;;;;;13.50;91.40;;;;;;5032247;28;19924;-71
2021/11/01 15:21:00;;;;;;;;;;;13.50;91.50;;;;;;5034706;28;20312;-68
2021/11/01 15:23:36;;;;;;;;;;;13.50;91.50;;;;;;5037166;28;20003;-70
2021/11/01 15:26:13;;;;;;;;;;;13.50;91.60;;;;;;5035679;28;20350;-70
2021/11/01 15:29:07;;;;;;;;;;;13.40;91.50;;;;;;5014774;28;20362;-70
2021/11/01 16:19:49;;;;;;;;;;;12.80;92.70;;;;;;5040472;28;19978;-69
2021/11/01 16:22:17;;;;;;;;;;;12.80;92.90;;;;;;5037380;28;20334;-69
2021/11/01 16:24:42;;;;;;;;;;;12.80;92.90;;;;;;5038385;28;19940;-70
2021/11/01 16:27:08;;;;;;;;;;;12.70;92.90;;;;;;5039555;28;20328;-69
2021/11/01 16:29:50;;;;;;;;;;;12.70;93.00;;;;;;5022817;28;19916;-70
2021/11/01 16:32:20;;;;;;;;;;;12.70;93.00;;;;;;5037392;28;20264;-69
2021/11/01 16:34:48;;;;;;;;;;;12.60;93.10;;;;;;5037921;28;19976;-69
2021/11/01 16:37:26;;;;;;;;;;;12.60;93.10;;;;;;5036948;28;19925;-69
2021/11/01 16:39:51;;;;;;;;;;;12.60;93.20;;;;;;5038773;28;19970;-69
2021/11/01 16:42:26;;;;;;;;;;;12.50;93.00;;;;;;5037838;28;19925;-69
2021/11/01 16:44:52;;;;;;;;;;;12.50;93.20;;;;;;5019409;28;19913;-70
2021/11/01 16:47:18;;;;;;;;;;;12.50;93.20;;;;;;5017850;28;19917;-70
2021/11/01 16:49:45;;;;;;;;;;;12.50;93.30;;;;;;5037136;28;20370;-70
2021/11/01 16:52:17;;;;;;;;;;;12.40;93.20;;;;;;5036883;28;20509;-70
2021/11/01 16:54:46;;;;;;;;;;;12.40;93.50;;;;;;5039713;28;19963;-70
2021/11/01 16:57:18;;;;;;;;;;;12.30;93.40;;;;;;5037201;28;20411;-70
2021/11/01 16:59:57;;;;;;;;;;;12.30;93.50;;;;;;5006083;28;19923;-70
2021/11/01 17:02:36;;;;;;;;;;;12.20;93.30;;;;;;5036398;28;19913;-73
2021/11/01 17:05:56;;;;;;;;;;;12.20;93.60;;;;;;5038375;28;20364;-73
2021/11/01 17:08:17;;;;;;;;;;;12.20;93.50;;;;;;5026907;28;19920;-71
2021/11/01 17:21:19;;;;;;;;;;;11.90;93.70;;;;;;5034441;28;19983;-71
2021/11/01 17:29:50;;;;;;;;;;;11.70;94.00;;;;;;5037221;28;19924;-71
2021/11/01 17:35:30;;;;;;;;;;;11.70;94.10;;;;;;5038034;28;19924;-71
2021/11/01 18:52:02;;;;;;;;;;;11.40;94.80;;;;;;5036254;28;20015;-69
2021/11/01 18:54:33;;;;;;;;;;;11.40;94.80;;;;;;5020606;28;19944;-69
2021/11/01 18:56:59;;;;;;;;;;;11.30;94.80;;;;;;5033739;28;19917;-67
2021/11/01 18:59:26;;;;;;;;;;;11.30;95.00;;;;;;5038698;28;20349;-70
2021/11/01 19:01:59;;;;;;;;;;;11.20;94.90;;;;;;5034347;28;20004;-70
2021/11/01 19:04:29;;;;;;;;;;;11.20;95.00;;;;;;5017088;28;19920;-70
2021/11/01 19:07:20;;;;;;;;;;;11.20;95.10;;;;;;5017876;28;19942;-70
2021/11/01 19:10:02;;;;;;;;;;;11.20;95.10;;;;;;5036764;28;20023;-70
2021/11/01 20:05:12;;;;;;;;;;;11.10;95.90;;;;;;5036820;28;19940;-71
2021/11/01 21:24:58;;;;;;;;;;;10.20;97.10;;;;;;5038744;28;20272;-70
2021/11/01 21:27:24;;;;;;;;;;;10.20;97.20;;;;;;5038772;28;19917;-71
2021/11/01 21:29:50;;;;;;;;;;;10.30;97.30;;;;;;5019843;28;19924;-71
2021/11/01 21:32:15;;;;;;;;;;;10.30;97.20;;;;;;5037493;28;19932;-71
2021/11/01 21:37:45;;;;;;;;;;;10.20;97.20;;;;;;4947712;28;20536;-71
2021/11/01 21:40:12;;;;;;;;;;;10.30;97.30;;;;;;4948025;28;19910;-71
2021/11/01 21:42:37;;;;;;;;;;;10.20;97.10;;;;;;4990699;28;19956;-71
2021/11/01 21:45:03;;;;;;;;;;;10.10;97.40;;;;;;5020522;28;19976;-71
2021/11/01 21:47:29;;;;;;;;;;;10.00;97.30;;;;;;5036901;28;20386;-71
2021/11/01 21:49:55;;;;;;;;;;;10.00;97.60;;;;;;5037862;28;19969;-71
2021/11/01 21:52:21;;;;;;;;;;;10.00;97.70;;;;;;5020432;28;20006;-71
2021/11/01 21:54:55;;;;;;;;;;;10.00;97.80;;;;;;5022448;28;19913;-71
2021/11/01 22:21:13;;;;;;;;;;;10.20;97.90;;;;;;5036507;28;20059;-70
2021/11/01 22:34:19;;;;;;;;;;;10.10;98.00;;;;;;5039223;28;20559;-71
2021/11/01 22:47:42;;;;;;;;;;;10.10;98.10;;;;;;5033967;28;19928;-71
2021/11/01 22:55:44;;;;;;;;;;;9.80;98.10;;;;;;5035988;28;19925;-71
2021/11/01 22:58:26;;;;;;;;;;;9.70;98.20;;;;;;5035624;28;19964;-71
2021/11/01 23:00:58;;;;;;;;;;;9.70;98.20;;;;;;5021491;28;20408;-71
2021/11/01 23:03:32;;;;;;;;;;;9.70;98.20;;;;;;5018853;28;20425;-71
2021/11/01 23:33:21;;;;;;;;;;;9.40;98.60;;;;;;5035846;28;20098;-71
2021/11/01 23:35:47;;;;;;;;;;;9.30;98.70;;;;;;5036053;28;19913;-72
2021/11/01 23:38:13;;;;;;;;;;;9.30;98.90;;;;;;5036850;28;19924;-72
2021/11/01 23:40:38;;;;;;;;;;;9.30;99.00;;;;;;5017653;28;19951;-72
2021/11/01 23:43:06;;;;;;;;;;;9.20;99.20;;;;;;5037073;28;19952;-71
2021/11/01 23:45:36;;;;;;;;;;;9.30;99.10;;;;;;5004197;28;20633;-72
2021/11/01 23:48:01;;;;;;;;;;;9.30;99.10;;;;;;5037898;28;19913;-71
2021/11/01 23:50:32;;;;;;;;;;;9.30;99.00;;;;;;5032756;28;19921;-71
2021/11/01 23:53:04;;;;;;;;;;;9.30;99.00;;;;;;5021372;28;19913;-72
2021/11/01 23:55:30;;;;;;;;;;;9.20;99.00;;;;;;5039309;28;20338;-72
2021/11/01 23:57:55;;;;;;;;;;;9.30;99.00;;;;;;5040204;28;19921;-71
